sensor_id;sensor_type;location;lat;lon;timestamp;temperature;humidity
17053;DHT22;8643;48.824;11.422;2024-01-30T00:00:34;-1.40;99.90
17053;DHT22;8643;48.824;11.422;2024-01-30T00:05:31;-1.40;99.90
17053;DHT22;8643;48.824;11.422;2024-01-30T00:08:00;-1.40;99.90
17053;DHT22;8643;48.824;11.422;2024-01-30T00:10:28;-1.40;99.90
17053;DHT22;8643;48.824;11.422;2024-01-30T00:12:57;-1.40;99.90
17053;DHT22;8643;48.824;11.422;2024-01-30T00:15:27;-1.50;99.90
17053;DHT22;8643;48.824;11.422;2024-01-30T00:17:55;-1.40;99.90
17053;DHT22;8643;48.824;11.422;2024-01-30T00:20:24;-1.40;99.90
17053;DHT22;8643;48.824;11.422;2024-01-30T00:22:52;-1.40;99.90
17053;DHT22;8643;48.824;11.422;2024-01-30T00:25:21;-1.40;99.90
17053;DHT22;8643;48.824;11.422;2024-01-30T00:27:50;-1.40;99.90
17053;DHT22;8643;48.824;11.422;2024-01-30T00:30:18;-1.40;99.90
17053;DHT22;8643;48.824;11.422;2024-01-30T00:32:49;-1.50;99.90
17053;DHT22;8643;48.824;11.422;2024-01-30T00:35:18;-1.60;99.90
17053;DHT22;8643;48.824;11.422;2024-01-30T00:40:15;-1.60;99.90
17053;DHT22;8643;48.824;11.422;2024-01-30T00:42:45;-1.50;99.90
17053;DHT22;8643;48.824;11.422;2024-01-30T00:45:13;-1.50;99.90
17053;DHT22;8643;48.824;11.422;2024-01-30T00:47:42;-1.60;99.90
17053;DHT22;8643;48.824;11.422;2024-01-30T00:50:13;-1.60;99.90
17053;DHT22;8643;48.824;11.422;2024-01-30T00:52:42;-1.70;99.90
17053;DHT22;8643;48.824;11.422;2024-01-30T00:55:12;-1.70;99.90
17053;DHT22;8643;48.824;11.422;2024-01-30T00:57:41;-1.80;99.90
17053;DHT22;8643;48.824;11.422;2024-01-30T01:00:13;-1.70;99.90
17053;DHT22;8643;48.824;11.422;2024-01-30T01:02:44;-1.80;99.90
17053;DHT22;8643;48.824;11.422;2024-01-30T01:05:14;-1.90;99.90
17053;DHT22;8643;48.824;11.422;2024-01-30T01:07:42;-1.90;99.90
17053;DHT22;8643;48.824;11.422;2024-01-30T01:10:11;-1.90;99.90
17053;DHT22;8643;48.824;11.422;2024-01-30T01:12:40;-1.90;99.90
17053;DHT22;8643;48.824;11.422;2024-01-30T01:15:09;-2.10;99.90
17053;DHT22;8643;48.824;11.422;2024-01-30T01:17:38;-1.90;99.90
17053;DHT22;8643;48.824;11.422;2024-01-30T01:20:08;-2.00;99.90
17053;DHT22;8643;48.824;11.422;2024-01-30T01:22:39;-2.00;99.90
17053;DHT22;8643;48.824;11.422;2024-01-30T01:25:08;-2.00;99.90
17053;DHT22;8643;48.824;11.422;2024-01-30T01:27:37;-2.00;99.90
17053;DHT22;8643;48.824;11.422;2024-01-30T01:30:09;-2.10;99.90
17053;DHT22;8643;48.824;11.422;2024-01-30T01:32:41;-2.00;99.90
17053;DHT22;8643;48.824;11.422;2024-01-30T01:35:16;-2.10;99.90
17053;DHT22;8643;48.824;11.422;2024-01-30T01:37:46;-2.10;99.90
17053;DHT22;8643;48.824;11.422;2024-01-30T01:40:14;-2.10;99.90
17053;DHT22;8643;48.824;11.422;2024-01-30T01:42:43;-2.10;99.90
17053;DHT22;8643;48.824;11.422;2024-01-30T01:45:11;-2.10;99.90
17053;DHT22;8643;48.824;11.422;2024-01-30T01:47:40;-2.00;99.90
17053;DHT22;8643;48.824;11.422;2024-01-30T01:50:08;-2.00;99.90
17053;DHT22;8643;48.824;11.422;2024-01-30T01:52:37;-2.00;99.90
17053;DHT22;8643;48.824;11.422;2024-01-30T01:55:08;-2.00;99.90
17053;DHT22;8643;48.824;11.422;2024-01-30T01:57:37;-2.00;99.90
17053;DHT22;8643;48.824;11.422;2024-01-30T02:00:07;-2.00;99.90
17053;DHT22;8643;48.824;11.422;2024-01-30T02:02:37;-2.10;99.90
17053;DHT22;8643;48.824;11.422;2024-01-30T02:05:08;-2.10;99.90
17053;DHT22;8643;48.824;11.422;2024-01-30T02:07:37;-2.10;99.90
17053;DHT22;8643;48.824;11.422;2024-01-30T02:10:08;-2.10;99.90
17053;DHT22;8643;48.824;11.422;2024-01-30T02:12:37;-2.10;99.90
17053;DHT22;8643;48.824;11.422;2024-01-30T02:15:06;-2.10;99.90
17053;DHT22;8643;48.824;11.422;2024-01-30T02:17:35;-2.10;99.90
17053;DHT22;8643;48.824;11.422;2024-01-30T02:20:04;-2.10;99.90
17053;DHT22;8643;48.824;11.422;2024-01-30T02:22:36;-2.10;99.90
17053;DHT22;8643;48.824;11.422;2024-01-30T02:25:05;-2.20;99.90
17053;DHT22;8643;48.824;11.422;2024-01-30T02:27:35;-2.20;99.90
17053;DHT22;8643;48.824;11.422;2024-01-30T02:30:04;-2.10;99.90
17053;DHT22;8643;48.824;11.422;2024-01-30T02:32:33;-2.00;99.90
17053;DHT22;8643;48.824;11.422;2024-01-30T02:35:02;-2.00;99.90
17053;DHT22;8643;48.824;11.422;2024-01-30T02:37:31;-2.00;99.90
17053;DHT22;8643;48.824;11.422;2024-01-30T02:40:01;-2.00;99.90
17053;DHT22;8643;48.824;11.422;2024-01-30T02:42:29;-2.10;99.90
17053;DHT22;8643;48.824;11.422;2024-01-30T02:44:58;-2.10;99.90
17053;DHT22;8643;48.824;11.422;2024-01-30T02:47:27;-2.10;99.90
17053;DHT22;8643;48.824;11.422;2024-01-30T02:49:55;-2.10;99.90
17053;DHT22;8643;48.824;11.422;2024-01-30T02:52:24;-2.10;99.90
17053;DHT22;8643;48.824;11.422;2024-01-30T02:54:53;-2.20;99.90
17053;DHT22;8643;48.824;11.422;2024-01-30T02:57:23;-2.30;99.90
17053;DHT22;8643;48.824;11.422;2024-01-30T02:59:51;-2.30;99.90
17053;DHT22;8643;48.824;11.422;2024-01-30T03:02:20;-2.20;99.90
17053;DHT22;8643;48.824;11.422;2024-01-30T03:04:48;-2.20;99.90
17053;DHT22;8643;48.824;11.422;2024-01-30T03:07:16;-2.30;99.90
17053;DHT22;8643;48.824;11.422;2024-01-30T03:09:45;-2.30;99.90
17053;DHT22;8643;48.824;11.422;2024-01-30T03:14:44;-2.20;99.90
17053;DHT22;8643;48.824;11.422;2024-01-30T03:17:12;-2.30;99.90
17053;DHT22;8643;48.824;11.422;2024-01-30T03:19:41;-2.30;99.90
17053;DHT22;8643;48.824;11.422;2024-01-30T03:22:10;-2.40;99.90
17053;DHT22;8643;48.824;11.422;2024-01-30T03:27:07;-2.40;99.90
17053;DHT22;8643;48.824;11.422;2024-01-30T03:29:36;-2.50;99.90
17053;DHT22;8643;48.824;11.422;2024-01-30T03:32:06;-2.50;99.90
17053;DHT22;8643;48.824;11.422;2024-01-30T03:34:34;-2.60;99.90
17053;DHT22;8643;48.824;11.422;2024-01-30T03:37:03;-2.60;99.90
17053;DHT22;8643;48.824;11.422;2024-01-30T03:39:31;-2.60;99.90
17053;DHT22;8643;48.824;11.422;2024-01-30T03:46:57;-2.70;99.90
17053;DHT22;8643;48.824;11.422;2024-01-30T03:49:27;-2.60;99.90
17053;DHT22;8643;48.824;11.422;2024-01-30T03:51:56;-2.70;99.90
17053;DHT22;8643;48.824;11.422;2024-01-30T03:56:53;-2.70;99.90
17053;DHT22;8643;48.824;11.422;2024-01-30T03:59:22;-2.70;99.90
17053;DHT22;8643;48.824;11.422;2024-01-30T04:01:51;-2.70;99.90
17053;DHT22;8643;48.824;11.422;2024-01-30T04:04:20;-2.70;99.90
17053;DHT22;8643;48.824;11.422;2024-01-30T04:06:50;-2.70;99.90
17053;DHT22;8643;48.824;11.422;2024-01-30T04:09:18;-2.70;99.90
17053;DHT22;8643;48.824;11.422;2024-01-30T04:11:47;-2.80;99.90
17053;DHT22;8643;48.824;11.422;2024-01-30T04:14:16;-2.90;99.90
17053;DHT22;8643;48.824;11.422;2024-01-30T04:16:44;-2.90;99.90
17053;DHT22;8643;48.824;11.422;2024-01-30T04:19:12;-2.90;99.90
17053;DHT22;8643;48.824;11.422;2024-01-30T04:21:41;-2.80;99.90
17053;DHT22;8643;48.824;11.422;2024-01-30T04:24:11;-2.90;99.90
17053;DHT22;8643;48.824;11.422;2024-01-30T04:26:40;-2.90;99.90
17053;DHT22;8643;48.824;11.422;2024-01-30T04:29:08;-2.90;99.90
17053;DHT22;8643;48.824;11.422;2024-01-30T04:31:36;-2.80;99.90
17053;DHT22;8643;48.824;11.422;2024-01-30T04:34:05;-2.80;99.90
17053;DHT22;8643;48.824;11.422;2024-01-30T04:36:34;-2.80;99.90
17053;DHT22;8643;48.824;11.422;2024-01-30T04:39:02;-2.90;99.90
17053;DHT22;8643;48.824;11.422;2024-01-30T04:41:32;-2.80;99.90
17053;DHT22;8643;48.824;11.422;2024-01-30T04:44:01;-2.90;99.90
17053;DHT22;8643;48.824;11.422;2024-01-30T04:46:29;-2.90;99.90
17053;DHT22;8643;48.824;11.422;2024-01-30T04:48:57;-2.90;99.90
17053;DHT22;8643;48.824;11.422;2024-01-30T04:51:26;-2.90;99.90
17053;DHT22;8643;48.824;11.422;2024-01-30T04:56:23;-2.90;99.90
17053;DHT22;8643;48.824;11.422;2024-01-30T04:58:53;-2.90;99.90
17053;DHT22;8643;48.824;11.422;2024-01-30T05:01:22;-2.90;99.90
17053;DHT22;8643;48.824;11.422;2024-01-30T05:03:50;-2.90;99.90
17053;DHT22;8643;48.824;11.422;2024-01-30T05:06:24;-2.90;99.90
17053;DHT22;8643;48.824;11.422;2024-01-30T05:08:53;-2.90;99.90
17053;DHT22;8643;48.824;11.422;2024-01-30T05:11:22;-2.80;99.90
17053;DHT22;8643;48.824;11.422;2024-01-30T05:13:50;-2.90;99.90
17053;DHT22;8643;48.824;11.422;2024-01-30T05:16:20;-2.90;99.90
17053;DHT22;8643;48.824;11.422;2024-01-30T05:18:48;-2.90;99.90
17053;DHT22;8643;48.824;11.422;2024-01-30T05:21:17;-2.90;99.90
17053;DHT22;8643;48.824;11.422;2024-01-30T05:23:45;-2.90;99.90
17053;DHT22;8643;48.824;11.422;2024-01-30T05:26:14;-3.00;99.90
17053;DHT22;8643;48.824;11.422;2024-01-30T05:28:43;-2.90;99.90
17053;DHT22;8643;48.824;11.422;2024-01-30T05:31:11;-3.00;99.90
17053;DHT22;8643;48.824;11.422;2024-01-30T05:33:41;-3.00;99.90
17053;DHT22;8643;48.824;11.422;2024-01-30T05:36:12;-3.10;99.90
17053;DHT22;8643;48.824;11.422;2024-01-30T05:38:41;-3.00;99.90
17053;DHT22;8643;48.824;11.422;2024-01-30T05:41:09;-3.00;99.90
17053;DHT22;8643;48.824;11.422;2024-01-30T05:43:38;-3.00;99.90
17053;DHT22;8643;48.824;11.422;2024-01-30T05:46:06;-3.00;99.90
17053;DHT22;8643;48.824;11.422;2024-01-30T05:48:35;-3.00;99.90
17053;DHT22;8643;48.824;11.422;2024-01-30T05:51:07;-3.00;99.90
17053;DHT22;8643;48.824;11.422;2024-01-30T05:56:05;-3.00;99.90
17053;DHT22;8643;48.824;11.422;2024-01-30T05:58:34;-2.90;99.90
17053;DHT22;8643;48.824;11.422;2024-01-30T06:01:07;-3.00;99.90
17053;DHT22;8643;48.824;11.422;2024-01-30T06:03:36;-2.90;99.90
17053;DHT22;8643;48.824;11.422;2024-01-30T06:06:07;-2.80;99.90
17053;DHT22;8643;48.824;11.422;2024-01-30T06:08:35;-2.80;99.90
17053;DHT22;8643;48.824;11.422;2024-01-30T06:11:05;-2.80;99.90
17053;DHT22;8643;48.824;11.422;2024-01-30T06:13:33;-2.70;99.90
17053;DHT22;8643;48.824;11.422;2024-01-30T06:16:02;-2.70;99.90
17053;DHT22;8643;48.824;11.422;2024-01-30T06:18:31;-2.80;99.90
17053;DHT22;8643;48.824;11.422;2024-01-30T06:20:59;-2.80;99.90
17053;DHT22;8643;48.824;11.422;2024-01-30T06:23:29;-2.80;99.90
17053;DHT22;8643;48.824;11.422;2024-01-30T06:25:57;-2.90;99.90
17053;DHT22;8643;48.824;11.422;2024-01-30T06:28:26;-2.90;99.90
17053;DHT22;8643;48.824;11.422;2024-01-30T06:30:55;-2.90;99.90
17053;DHT22;8643;48.824;11.422;2024-01-30T06:33:24;-3.00;99.90
17053;DHT22;8643;48.824;11.422;2024-01-30T06:35:53;-3.10;99.90
17053;DHT22;8643;48.824;11.422;2024-01-30T06:38:21;-3.00;99.90
17053;DHT22;8643;48.824;11.422;2024-01-30T06:40:51;-3.10;99.90
17053;DHT22;8643;48.824;11.422;2024-01-30T06:43:20;-3.10;99.90
17053;DHT22;8643;48.824;11.422;2024-01-30T06:45:48;-3.00;99.90
17053;DHT22;8643;48.824;11.422;2024-01-30T06:48:18;-2.90;99.90
17053;DHT22;8643;48.824;11.422;2024-01-30T06:50:47;-2.90;99.90
17053;DHT22;8643;48.824;11.422;2024-01-30T06:53:16;-2.90;99.90
17053;DHT22;8643;48.824;11.422;2024-01-30T06:55:44;-2.90;99.90
17053;DHT22;8643;48.824;11.422;2024-01-30T06:58:15;-3.00;99.90
17053;DHT22;8643;48.824;11.422;2024-01-30T07:00:43;-2.90;99.90
17053;DHT22;8643;48.824;11.422;2024-01-30T07:03:12;-2.90;99.90
17053;DHT22;8643;48.824;11.422;2024-01-30T07:05:40;-2.80;99.90
17053;DHT22;8643;48.824;11.422;2024-01-30T07:08:09;-2.90;99.90
17053;DHT22;8643;48.824;11.422;2024-01-30T07:10:38;-2.70;99.90
17053;DHT22;8643;48.824;11.422;2024-01-30T07:13:06;-2.60;99.90
17053;DHT22;8643;48.824;11.422;2024-01-30T07:15:38;-2.50;99.90
17053;DHT22;8643;48.824;11.422;2024-01-30T07:18:07;-2.40;99.90
17053;DHT22;8643;48.824;11.422;2024-01-30T07:20:36;-2.20;99.90
17053;DHT22;8643;48.824;11.422;2024-01-30T07:23:08;-2.10;99.90
17053;DHT22;8643;48.824;11.422;2024-01-30T07:25:41;-2.00;99.90
17053;DHT22;8643;48.824;11.422;2024-01-30T07:28:10;-2.00;99.90
17053;DHT22;8643;48.824;11.422;2024-01-30T07:30:40;-1.90;99.90
17053;DHT22;8643;48.824;11.422;2024-01-30T07:33:09;-1.80;99.90
17053;DHT22;8643;48.824;11.422;2024-01-30T07:35:38;-1.70;99.90
17053;DHT22;8643;48.824;11.422;2024-01-30T07:38:06;-1.50;99.90
17053;DHT22;8643;48.824;11.422;2024-01-30T07:40:35;-1.30;99.90
17053;DHT22;8643;48.824;11.422;2024-01-30T07:43:03;-1.10;99.90
17053;DHT22;8643;48.824;11.422;2024-01-30T07:45:32;-0.90;99.90
17053;DHT22;8643;48.824;11.422;2024-01-30T07:48:02;-0.80;99.90
17053;DHT22;8643;48.824;11.422;2024-01-30T07:50:31;-0.60;99.90
17053;DHT22;8643;48.824;11.422;2024-01-30T07:53:00;-0.20;99.90
17053;DHT22;8643;48.824;11.422;2024-01-30T07:57:59;0.10;99.90
17053;DHT22;8643;48.824;11.422;2024-01-30T08:00:28;0.20;99.90
17053;DHT22;8643;48.824;11.422;2024-01-30T08:02:57;0.20;99.90
17053;DHT22;8643;48.824;11.422;2024-01-30T08:05:27;0.50;99.90
17053;DHT22;8643;48.824;11.422;2024-01-30T08:07:55;0.60;99.90
17053;DHT22;8643;48.824;11.422;2024-01-30T08:10:24;0.60;99.90
17053;DHT22;8643;48.824;11.422;2024-01-30T08:12:53;0.80;99.90
17053;DHT22;8643;48.824;11.422;2024-01-30T08:15:21;1.10;99.90
17053;DHT22;8643;48.824;11.422;2024-01-30T08:17:50;1.30;99.90
17053;DHT22;8643;48.824;11.422;2024-01-30T08:20:22;1.50;99.90
17053;DHT22;8643;48.824;11.422;2024-01-30T08:22:52;1.70;99.90
17053;DHT22;8643;48.824;11.422;2024-01-30T08:25:21;1.90;99.90
17053;DHT22;8643;48.824;11.422;2024-01-30T08:27:50;2.00;99.90
17053;DHT22;8643;48.824;11.422;2024-01-30T08:30:19;2.40;99.90
17053;DHT22;8643;48.824;11.422;2024-01-30T08:32:47;2.70;99.90
17053;DHT22;8643;48.824;11.422;2024-01-30T08:35:16;3.10;99.90
17053;DHT22;8643;48.824;11.422;2024-01-30T08:37:44;3.20;99.90
17053;DHT22;8643;48.824;11.422;2024-01-30T08:40:14;3.20;99.90
17053;DHT22;8643;48.824;11.422;2024-01-30T08:42:43;3.50;99.90
17053;DHT22;8643;48.824;11.422;2024-01-30T08:45:11;3.60;99.90
17053;DHT22;8643;48.824;11.422;2024-01-30T08:47:40;3.70;99.90
17053;DHT22;8643;48.824;11.422;2024-01-30T08:50:09;3.80;99.90
17053;DHT22;8643;48.824;11.422;2024-01-30T08:52:37;4.00;99.90
17053;DHT22;8643;48.824;11.422;2024-01-30T08:55:06;4.30;99.90
17053;DHT22;8643;48.824;11.422;2024-01-30T08:57:37;4.70;99.90
17053;DHT22;8643;48.824;11.422;2024-01-30T09:00:07;4.80;99.90
17053;DHT22;8643;48.824;11.422;2024-01-30T09:02:36;4.90;99.90
17053;DHT22;8643;48.824;11.422;2024-01-30T09:05:04;5.20;99.90
17053;DHT22;8643;48.824;11.422;2024-01-30T09:07:34;5.40;99.90
17053;DHT22;8643;48.824;11.422;2024-01-30T09:10:03;5.90;99.90
17053;DHT22;8643;48.824;11.422;2024-01-30T09:12:33;6.30;99.90
17053;DHT22;8643;48.824;11.422;2024-01-30T09:15:03;6.30;99.90
17053;DHT22;8643;48.824;11.422;2024-01-30T09:17:32;6.30;99.90
17053;DHT22;8643;48.824;11.422;2024-01-30T09:20:01;6.10;99.90
17053;DHT22;8643;48.824;11.422;2024-01-30T09:22:30;6.20;99.90
17053;DHT22;8643;48.824;11.422;2024-01-30T09:24:58;6.20;99.90
17053;DHT22;8643;48.824;11.422;2024-01-30T09:27:27;6.20;99.90
17053;DHT22;8643;48.824;11.422;2024-01-30T09:29:55;5.90;99.90
17053;DHT22;8643;48.824;11.422;2024-01-30T09:32:25;5.90;99.90
17053;DHT22;8643;48.824;11.422;2024-01-30T09:34:53;5.80;99.90
17053;DHT22;8643;48.824;11.422;2024-01-30T09:37:22;5.50;99.90
17053;DHT22;8643;48.824;11.422;2024-01-30T09:42:28;4.90;99.90
17053;DHT22;8643;48.824;11.422;2024-01-30T09:45:01;4.50;99.90
17053;DHT22;8643;48.824;11.422;2024-01-30T09:47:38;4.10;99.90
17053;DHT22;8643;48.824;11.422;2024-01-30T09:50:10;3.70;99.90
17053;DHT22;8643;48.824;11.422;2024-01-30T09:52:40;3.30;99.90
17053;DHT22;8643;48.824;11.422;2024-01-30T09:55:09;3.00;99.90
17053;DHT22;8643;48.824;11.422;2024-01-30T09:57:39;3.00;99.90
17053;DHT22;8643;48.824;11.422;2024-01-30T10:00:08;3.00;99.90
17053;DHT22;8643;48.824;11.422;2024-01-30T10:02:40;3.10;99.90
17053;DHT22;8643;48.824;11.422;2024-01-30T10:05:11;3.10;99.90
17053;DHT22;8643;48.824;11.422;2024-01-30T10:07:56;3.20;99.90
17053;DHT22;8643;48.824;11.422;2024-01-30T10:10:26;3.30;99.90
17053;DHT22;8643;48.824;11.422;2024-01-30T10:12:54;3.50;99.90
17053;DHT22;8643;48.824;11.422;2024-01-30T10:15:24;4.10;99.90
17053;DHT22;8643;48.824;11.422;2024-01-30T10:17:57;4.30;99.90
17053;DHT22;8643;48.824;11.422;2024-01-30T10:20:26;4.60;99.90
17053;DHT22;8643;48.824;11.422;2024-01-30T10:22:55;4.70;99.90
17053;DHT22;8643;48.824;11.422;2024-01-30T10:25:25;4.70;99.90
17053;DHT22;8643;48.824;11.422;2024-01-30T10:27:54;5.30;99.90
17053;DHT22;8643;48.824;11.422;2024-01-30T10:30:23;5.50;99.90
17053;DHT22;8643;48.824;11.422;2024-01-30T10:32:52;5.70;99.90
17053;DHT22;8643;48.824;11.422;2024-01-30T10:35:22;6.10;99.90
17053;DHT22;8643;48.824;11.422;2024-01-30T10:37:51;5.90;99.90
17053;DHT22;8643;48.824;11.422;2024-01-30T10:40:28;5.70;99.90
17053;DHT22;8643;48.824;11.422;2024-01-30T10:43:00;6.00;99.90
17053;DHT22;8643;48.824;11.422;2024-01-30T10:45:31;5.70;99.90
17053;DHT22;8643;48.824;11.422;2024-01-30T10:48:00;5.80;99.90
17053;DHT22;8643;48.824;11.422;2024-01-30T10:50:34;5.60;99.90
17053;DHT22;8643;48.824;11.422;2024-01-30T10:53:17;5.50;99.90
17053;DHT22;8643;48.824;11.422;2024-01-30T10:55:47;5.30;99.90
17053;DHT22;8643;48.824;11.422;2024-01-30T10:58:19;5.20;99.90
17053;DHT22;8643;48.824;11.422;2024-01-30T11:00:49;5.20;99.90
17053;DHT22;8643;48.824;11.422;2024-01-30T11:03:19;5.00;99.90
17053;DHT22;8643;48.824;11.422;2024-01-30T11:05:50;5.00;99.90
17053;DHT22;8643;48.824;11.422;2024-01-30T11:08:24;5.00;99.90
17053;DHT22;8643;48.824;11.422;2024-01-30T11:10:56;5.00;99.90
17053;DHT22;8643;48.824;11.422;2024-01-30T11:13:29;4.90;99.90
17053;DHT22;8643;48.824;11.422;2024-01-30T11:16:00;5.00;99.90
17053;DHT22;8643;48.824;11.422;2024-01-30T11:18:31;5.10;99.90
17053;DHT22;8643;48.824;11.422;2024-01-30T11:21:04;5.10;99.90
17053;DHT22;8643;48.824;11.422;2024-01-30T11:23:34;5.20;99.90
17053;DHT22;8643;48.824;11.422;2024-01-30T11:26:04;5.30;99.90
17053;DHT22;8643;48.824;11.422;2024-01-30T11:28:33;6.00;99.90
17053;DHT22;8643;48.824;11.422;2024-01-30T11:31:06;5.60;99.90
17053;DHT22;8643;48.824;11.422;2024-01-30T11:33:36;5.70;99.90
17053;DHT22;8643;48.824;11.422;2024-01-30T11:36:06;6.00;99.90
17053;DHT22;8643;48.824;11.422;2024-01-30T11:38:36;6.20;99.90
17053;DHT22;8643;48.824;11.422;2024-01-30T11:41:08;6.30;99.90
17053;DHT22;8643;48.824;11.422;2024-01-30T11:43:37;6.30;99.90
17053;DHT22;8643;48.824;11.422;2024-01-30T11:46:06;6.20;99.90
17053;DHT22;8643;48.824;11.422;2024-01-30T11:48:36;6.40;99.90
17053;DHT22;8643;48.824;11.422;2024-01-30T11:51:06;6.20;99.90
17053;DHT22;8643;48.824;11.422;2024-01-30T11:53:35;6.40;99.90
17053;DHT22;8643;48.824;11.422;2024-01-30T11:56:06;6.30;99.90
17053;DHT22;8643;48.824;11.422;2024-01-30T11:58:35;6.10;99.90
17053;DHT22;8643;48.824;11.422;2024-01-30T12:01:04;6.10;99.90
17053;DHT22;8643;48.824;11.422;2024-01-30T12:03:32;6.10;99.90
17053;DHT22;8643;48.824;11.422;2024-01-30T12:06:03;6.20;99.90
17053;DHT22;8643;48.824;11.422;2024-01-30T12:08:34;6.20;99.90
17053;DHT22;8643;48.824;11.422;2024-01-30T12:11:02;6.30;99.90
17053;DHT22;8643;48.824;11.422;2024-01-30T12:13:32;6.30;99.90
17053;DHT22;8643;48.824;11.422;2024-01-30T12:16:01;6.30;99.90
17053;DHT22;8643;48.824;11.422;2024-01-30T12:18:30;6.40;99.90
17053;DHT22;8643;48.824;11.422;2024-01-30T12:20:59;6.50;99.90
17053;DHT22;8643;48.824;11.422;2024-01-30T12:23:28;6.60;99.90
17053;DHT22;8643;48.824;11.422;2024-01-30T12:25:58;6.60;99.90
17053;DHT22;8643;48.824;11.422;2024-01-30T12:28:27;6.60;99.90
17053;DHT22;8643;48.824;11.422;2024-01-30T12:30:56;6.60;99.90
17053;DHT22;8643;48.824;11.422;2024-01-30T12:33:26;6.70;99.90
17053;DHT22;8643;48.824;11.422;2024-01-30T12:35:56;6.60;99.90
17053;DHT22;8643;48.824;11.422;2024-01-30T12:38:29;6.70;99.90
17053;DHT22;8643;48.824;11.422;2024-01-30T12:41:00;6.70;99.90
17053;DHT22;8643;48.824;11.422;2024-01-30T12:43:29;6.60;99.90
17053;DHT22;8643;48.824;11.422;2024-01-30T12:46:05;6.60;99.90
17053;DHT22;8643;48.824;11.422;2024-01-30T12:48:35;6.70;99.90
17053;DHT22;8643;48.824;11.422;2024-01-30T12:51:04;6.70;99.90
17053;DHT22;8643;48.824;11.422;2024-01-30T12:53:33;6.70;99.90
17053;DHT22;8643;48.824;11.422;2024-01-30T12:56:03;6.70;99.90
17053;DHT22;8643;48.824;11.422;2024-01-30T12:58:31;6.70;99.90
17053;DHT22;8643;48.824;11.422;2024-01-30T13:01:00;6.70;99.90
17053;DHT22;8643;48.824;11.422;2024-01-30T13:03:29;6.60;99.90
17053;DHT22;8643;48.824;11.422;2024-01-30T13:05:59;6.50;99.90
17053;DHT22;8643;48.824;11.422;2024-01-30T13:08:28;6.60;99.90
17053;DHT22;8643;48.824;11.422;2024-01-30T13:10:56;6.60;99.90
17053;DHT22;8643;48.824;11.422;2024-01-30T13:13:26;6.80;99.90
17053;DHT22;8643;48.824;11.422;2024-01-30T13:15:54;6.90;99.90
17053;DHT22;8643;48.824;11.422;2024-01-30T13:18:23;6.90;99.90
17053;DHT22;8643;48.824;11.422;2024-01-30T13:20:52;7.00;99.90
17053;DHT22;8643;48.824;11.422;2024-01-30T13:23:21;7.10;99.90
17053;DHT22;8643;48.824;11.422;2024-01-30T13:25:49;7.30;99.90
17053;DHT22;8643;48.824;11.422;2024-01-30T13:28:18;7.40;99.90
17053;DHT22;8643;48.824;11.422;2024-01-30T13:30:48;7.80;99.90
17053;DHT22;8643;48.824;11.422;2024-01-30T13:33:16;8.10;99.90
17053;DHT22;8643;48.824;11.422;2024-01-30T13:35:45;8.20;99.90
17053;DHT22;8643;48.824;11.422;2024-01-30T13:38:14;8.60;99.90
17053;DHT22;8643;48.824;11.422;2024-01-30T13:40:42;8.80;99.90
17053;DHT22;8643;48.824;11.422;2024-01-30T13:43:11;9.00;99.90
17053;DHT22;8643;48.824;11.422;2024-01-30T13:45:40;9.20;99.90
17053;DHT22;8643;48.824;11.422;2024-01-30T13:48:10;9.20;99.90
17053;DHT22;8643;48.824;11.422;2024-01-30T13:50:39;9.50;99.90
17053;DHT22;8643;48.824;11.422;2024-01-30T13:55:36;9.70;99.90
17053;DHT22;8643;48.824;11.422;2024-01-30T13:58:05;9.50;99.90
17053;DHT22;8643;48.824;11.422;2024-01-30T14:00:34;9.60;99.90
17053;DHT22;8643;48.824;11.422;2024-01-30T14:03:03;9.50;99.90
17053;DHT22;8643;48.824;11.422;2024-01-30T14:05:33;8.80;99.90
17053;DHT22;8643;48.824;11.422;2024-01-30T14:08:02;8.50;99.90
17053;DHT22;8643;48.824;11.422;2024-01-30T14:10:32;8.50;99.90
17053;DHT22;8643;48.824;11.422;2024-01-30T14:13:01;7.70;99.90
17053;DHT22;8643;48.824;11.422;2024-01-30T14:15:30;7.40;99.90
17053;DHT22;8643;48.824;11.422;2024-01-30T14:17:58;7.30;99.90
17053;DHT22;8643;48.824;11.422;2024-01-30T14:20:27;7.10;99.90
17053;DHT22;8643;48.824;11.422;2024-01-30T14:22:57;7.10;99.90
17053;DHT22;8643;48.824;11.422;2024-01-30T14:25:26;7.30;99.90
17053;DHT22;8643;48.824;11.422;2024-01-30T14:27:54;7.40;99.90
17053;DHT22;8643;48.824;11.422;2024-01-30T14:30:23;7.90;99.90
17053;DHT22;8643;48.824;11.422;2024-01-30T14:32:52;8.30;99.90
17053;DHT22;8643;48.824;11.422;2024-01-30T14:35:20;8.30;99.90
17053;DHT22;8643;48.824;11.422;2024-01-30T14:37:49;8.90;99.90
17053;DHT22;8643;48.824;11.422;2024-01-30T14:40:19;9.20;99.90
17053;DHT22;8643;48.824;11.422;2024-01-30T14:42:48;9.20;99.90
17053;DHT22;8643;48.824;11.422;2024-01-30T14:45:16;9.50;99.90
17053;DHT22;8643;48.824;11.422;2024-01-30T14:47:45;9.70;99.90
17053;DHT22;8643;48.824;11.422;2024-01-30T14:50:14;9.50;99.90
17053;DHT22;8643;48.824;11.422;2024-01-30T14:52:44;9.70;99.90
17053;DHT22;8643;48.824;11.422;2024-01-30T14:55:12;9.50;99.90
17053;DHT22;8643;48.824;11.422;2024-01-30T14:57:42;9.00;99.90
17053;DHT22;8643;48.824;11.422;2024-01-30T15:00:13;9.10;99.90
17053;DHT22;8643;48.824;11.422;2024-01-30T15:02:44;8.90;99.90
17053;DHT22;8643;48.824;11.422;2024-01-30T15:05:14;8.90;99.90
17053;DHT22;8643;48.824;11.422;2024-01-30T15:07:43;8.80;99.90
17053;DHT22;8643;48.824;11.422;2024-01-30T15:10:12;8.40;99.90
17053;DHT22;8643;48.824;11.422;2024-01-30T15:12:42;8.20;99.90
17053;DHT22;8643;48.824;11.422;2024-01-30T15:15:10;8.10;99.90
17053;DHT22;8643;48.824;11.422;2024-01-30T15:17:39;8.50;99.90
17053;DHT22;8643;48.824;11.422;2024-01-30T15:20:08;8.70;99.90
17053;DHT22;8643;48.824;11.422;2024-01-30T15:22:37;8.50;99.90
17053;DHT22;8643;48.824;11.422;2024-01-30T15:25:07;8.30;99.90
17053;DHT22;8643;48.824;11.422;2024-01-30T15:27:36;8.40;99.90
17053;DHT22;8643;48.824;11.422;2024-01-30T15:30:07;8.40;99.90
17053;DHT22;8643;48.824;11.422;2024-01-30T15:32:39;8.30;99.90
17053;DHT22;8643;48.824;11.422;2024-01-30T15:35:08;8.00;99.90
17053;DHT22;8643;48.824;11.422;2024-01-30T15:37:36;7.60;99.90
17053;DHT22;8643;48.824;11.422;2024-01-30T15:40:06;7.20;99.90
17053;DHT22;8643;48.824;11.422;2024-01-30T15:42:35;6.70;99.90
17053;DHT22;8643;48.824;11.422;2024-01-30T15:45:06;6.30;99.90
17053;DHT22;8643;48.824;11.422;2024-01-30T15:47:35;5.90;99.90
17053;DHT22;8643;48.824;11.422;2024-01-30T15:50:04;5.50;99.90
17053;DHT22;8643;48.824;11.422;2024-01-30T15:52:33;5.10;99.90
17053;DHT22;8643;48.824;11.422;2024-01-30T15:55:02;4.80;99.90
17053;DHT22;8643;48.824;11.422;2024-01-30T15:57:31;4.50;99.90
17053;DHT22;8643;48.824;11.422;2024-01-30T16:00:00;4.20;99.90
17053;DHT22;8643;48.824;11.422;2024-01-30T16:02:38;4.00;99.90
17053;DHT22;8643;48.824;11.422;2024-01-30T16:05:07;3.70;99.90
17053;DHT22;8643;48.824;11.422;2024-01-30T16:07:37;3.50;99.90
17053;DHT22;8643;48.824;11.422;2024-01-30T16:10:06;3.30;99.90
17053;DHT22;8643;48.824;11.422;2024-01-30T16:12:35;3.20;99.90
17053;DHT22;8643;48.824;11.422;2024-01-30T16:15:04;3.00;99.90
17053;DHT22;8643;48.824;11.422;2024-01-30T16:17:33;2.90;99.90
17053;DHT22;8643;48.824;11.422;2024-01-30T16:20:05;2.80;99.90
17053;DHT22;8643;48.824;11.422;2024-01-30T16:22:36;2.80;99.90